Time;durP1;ratioP1;P1;durP2;ratioP2;P2;SDS_P1;SDS_P2;PMS_P1;PMS_P2;Temp;Humidity;BMP_temperature;BMP_pressure;BME280_temperature;BME280_humidity;BME280_pressure;Samples;Min_cycle;Max_cycle;Signal;HPM_P1;HPM_P2
2022/06/26 00:01:41;;;;;;;12.60;8.27;;;19.30;99.90;;;;;;5058258;28;20032;-64
2022/06/26 00:04:10;;;;;;;11.30;8.30;;;19.30;99.90;;;;;;5074129;28;20501;-64
2022/06/26 00:06:35;;;;;;;10.32;8.27;;;19.30;99.90;;;;;;5053481;28;20041;-64
2022/06/26 00:09:01;;;;;;;10.88;7.45;;;19.30;99.90;;;;;;5047891;28;20044;-64
2022/06/26 00:11:26;;;;;;;9.45;8.25;;;19.30;99.90;;;;;;5039138;28;20060;-68
2022/06/26 00:13:52;;;;;;;9.88;8.60;;;19.20;99.90;;;;;;5054358;28;20403;-64
2022/06/26 00:16:19;;;;;;;9.35;8.35;;;19.20;99.90;;;;;;5067794;28;20052;-63
2022/06/26 00:18:45;;;;;;;10.63;8.25;;;19.20;99.90;;;;;;5027457;28;20055;-65
2022/06/26 00:21:11;;;;;;;10.30;8.43;;;19.20;99.90;;;;;;5059270;28;20041;-63
2022/06/26 00:23:36;;;;;;;10.00;7.45;;;19.20;99.90;;;;;;5051859;28;20415;-64
2022/06/26 00:26:03;;;;;;;9.43;8.02;;;19.20;99.90;;;;;;5064853;28;20458;-63
2022/06/26 00:28:28;;;;;;;9.55;7.93;;;19.20;99.90;;;;;;5068801;28;20040;-63
2022/06/26 00:30:54;;;;;;;9.70;7.85;;;19.20;99.90;;;;;;5062075;28;20402;-65
2022/06/26 00:33:20;;;;;;;12.23;8.80;;;19.20;99.90;;;;;;5067824;28;20036;-64
2022/06/26 00:35:45;;;;;;;11.98;9.35;;;19.10;99.90;;;;;;5041958;28;20040;-67
2022/06/26 00:38:11;;;;;;;13.38;10.70;;;19.00;99.90;;;;;;5050808;28;20040;-64
2022/06/26 00:40:38;;;;;;;13.70;10.82;;;18.90;99.90;;;;;;5063145;28;20036;-64
2022/06/26 00:43:05;;;;;;;16.80;11.82;;;18.80;99.90;;;;;;5046814;28;20040;-63
2022/06/26 00:45:30;;;;;;;12.88;11.00;;;18.80;99.90;;;;;;5050585;28;20043;-63
2022/06/26 00:47:56;;;;;;;13.48;11.10;;;18.80;99.90;;;;;;5057004;28;20040;-65
2022/06/26 00:50:22;;;;;;;13.07;11.15;;;18.90;99.90;;;;;;5061105;28;20040;-63
2022/06/26 00:52:48;;;;;;;14.15;11.75;;;18.90;99.90;;;;;;5055619;28;20063;-63
2022/06/26 00:55:14;;;;;;;14.52;12.52;;;18.90;99.90;;;;;;5062491;28;20483;-64
2022/06/26 00:57:40;;;;;;;15.48;11.95;;;19.00;99.90;;;;;;5078417;22;20095;-78
2022/06/26 01:00:08;;;;;;;18.10;13.18;;;19.00;99.90;;;;;;5032386;28;20041;-78
2022/06/26 01:02:33;;;;;;;18.98;13.27;;;19.00;99.90;;;;;;5032395;28;20033;-77
2022/06/26 01:04:59;;;;;;;18.17;12.15;;;19.10;99.90;;;;;;5031681;28;20033;-77
2022/06/26 01:07:25;;;;;;;14.40;12.43;;;19.10;99.90;;;;;;5031982;28;20072;-77
2022/06/26 01:09:51;;;;;;;17.65;13.38;;;19.10;99.90;;;;;;5032430;28;20033;-77
2022/06/26 01:12:17;;;;;;;19.50;13.18;;;19.20;99.90;;;;;;5032091;28;20022;-77
2022/06/26 01:14:44;;;;;;;20.98;13.02;;;19.10;99.90;;;;;;5030721;28;20052;-77
2022/06/26 01:17:10;;;;;;;19.42;13.23;;;19.10;99.90;;;;;;5031898;28;20045;-77
2022/06/26 01:19:37;;;;;;;21.23;13.90;;;19.20;99.90;;;;;;5027824;28;20048;-77
2022/06/26 01:22:03;;;;;;;27.08;13.57;;;19.10;99.90;;;;;;5029231;28;20053;-78
2022/06/26 01:24:28;;;;;;;23.10;11.93;;;19.20;99.90;;;;;;5030542;28;20045;-78
2022/06/26 01:26:54;;;;;;;20.35;13.27;;;19.20;99.90;;;;;;5027950;28;20103;-78
2022/06/26 01:29:21;;;;;;;16.45;12.60;;;19.10;99.90;;;;;;5030883;28;20029;-78
2022/06/26 01:31:46;;;;;;;16.38;12.27;;;19.10;99.90;;;;;;5030398;28;20041;-78
2022/06/26 01:34:12;;;;;;;19.58;13.30;;;19.10;99.90;;;;;;5031605;28;20125;-78
2022/06/26 01:36:39;;;;;;;16.63;12.85;;;19.20;99.90;;;;;;5031358;28;20041;-78
2022/06/26 01:39:05;;;;;;;18.15;12.45;;;19.20;99.90;;;;;;5030759;28;20083;-78
2022/06/26 01:41:31;;;;;;;16.05;12.13;;;19.10;99.90;;;;;;5028200;28;20301;-78
2022/06/26 01:43:56;;;;;;;15.90;12.38;;;19.10;99.90;;;;;;5031535;28;20386;-78
2022/06/26 01:46:24;;;;;;;17.52;12.75;;;19.10;99.90;;;;;;5024273;28;20478;-77
2022/06/26 01:48:50;;;;;;;18.98;12.65;;;19.10;99.90;;;;;;5025775;28;20045;-77
2022/06/26 01:51:15;;;;;;;20.08;13.02;;;19.00;99.90;;;;;;5031454;28;20121;-77
2022/06/26 01:53:41;;;;;;;15.75;12.10;;;19.00;99.90;;;;;;5011678;28;20367;-77
2022/06/26 01:56:07;;;;;;;16.73;12.35;;;19.00;99.90;;;;;;5028646;28;20481;-78
2022/06/26 01:58:34;;;;;;;20.30;13.07;;;19.00;99.90;;;;;;5023046;28;20155;-78
2022/06/26 02:01:00;;;;;;;19.63;12.73;;;19.00;99.90;;;;;;5030737;28;20037;-78
2022/06/26 02:03:27;;;;;;;17.08;12.18;;;19.00;99.90;;;;;;5030946;28;20033;-78
2022/06/26 02:05:53;;;;;;;19.83;13.75;;;18.90;99.90;;;;;;5030127;28;20038;-78
2022/06/26 02:08:19;;;;;;;14.50;12.07;;;18.90;99.90;;;;;;5030955;28;20408;-78
2022/06/26 02:13:36;;;;;;;14.20;11.82;;;18.90;99.90;;;;;;5023717;28;20187;-78
2022/06/26 02:16:02;;;;;;;17.20;11.30;;;18.90;99.90;;;;;;5014194;28;20469;-78
2022/06/26 02:18:28;;;;;;;15.27;11.50;;;18.80;99.90;;;;;;5014392;28;20087;-78
2022/06/26 02:20:55;;;;;;;18.10;11.25;;;18.90;99.90;;;;;;5030945;28;20041;-78
2022/06/26 02:23:20;;;;;;;14.20;11.63;;;18.90;99.90;;;;;;5029837;28;20044;-78
2022/06/26 02:25:46;;;;;;;17.35;10.73;;;18.80;99.90;;;;;;5022509;28;20033;-78
2022/06/26 02:28:13;;;;;;;18.63;11.07;;;18.80;99.90;;;;;;5027824;28;20057;-78
2022/06/26 02:30:39;;;;;;;15.85;10.75;;;18.80;99.90;;;;;;5030322;28;20037;-78
2022/06/26 02:33:05;;;;;;;14.13;10.38;;;18.80;99.90;;;;;;5030633;28;20037;-78
2022/06/26 02:35:31;;;;;;;16.10;10.57;;;18.80;99.90;;;;;;5024003;28;20041;-78
2022/06/26 02:37:57;;;;;;;14.77;10.38;;;18.90;99.90;;;;;;5026436;28;20087;-78
2022/06/26 02:40:28;;;;;;;14.38;9.80;;;18.80;99.90;;;;;;5021292;28;20041;-78
2022/06/26 02:42:54;;;;;;;17.08;10.05;;;18.80;99.90;;;;;;5028582;28;20037;-79
2022/06/26 02:45:20;;;;;;;13.75;8.80;;;18.70;99.90;;;;;;5025506;28;20029;-78
2022/06/26 02:47:47;;;;;;;15.63;10.20;;;18.70;99.90;;;;;;5030071;28;20079;-78
2022/06/26 02:50:16;;;;;;;14.90;9.48;;;18.60;99.90;;;;;;5030239;28;20046;-77
2022/06/26 02:52:42;;;;;;;15.80;8.70;;;18.60;99.90;;;;;;5041383;28;20044;-78
2022/06/26 02:55:08;;;;;;;10.35;8.30;;;18.60;99.90;;;;;;5037036;28;20073;-78
2022/06/26 02:57:34;;;;;;;13.98;8.68;;;18.50;99.90;;;;;;5028992;28;20443;-78
2022/06/26 03:00:00;;;;;;;13.18;8.02;;;18.40;99.90;;;;;;5027523;28;20041;-78
2022/06/26 03:02:25;;;;;;;9.93;7.68;;;18.40;99.90;;;;;;5043540;28;20041;-78
2022/06/26 03:04:53;;;;;;;12.35;7.28;;;18.30;99.90;;;;;;5030304;28;20037;-78
2022/06/26 03:07:19;;;;;;;9.73;7.28;;;18.30;99.90;;;;;;5029690;28;20214;-78
2022/06/26 03:09:46;;;;;;;9.45;6.70;;;18.30;99.90;;;;;;5029487;28;20044;-78
2022/06/26 03:12:12;;;;;;;7.80;5.72;;;18.20;99.90;;;;;;5030093;28;20048;-79
2022/06/26 03:14:37;;;;;;;11.25;6.60;;;18.20;99.90;;;;;;5029349;28;20216;-78
2022/06/26 03:17:03;;;;;;;8.38;5.72;;;18.20;99.90;;;;;;5029752;28;20037;-78
2022/06/26 03:19:29;;;;;;;8.25;5.60;;;18.20;99.90;;;;;;5030120;28;20412;-79
2022/06/26 03:21:54;;;;;;;8.18;5.75;;;18.20;99.90;;;;;;5029418;28;20033;-78
2022/06/26 03:24:20;;;;;;;8.90;6.05;;;18.10;99.90;;;;;;5029399;28;20046;-78
2022/06/26 03:26:47;;;;;;;7.18;5.32;;;18.10;99.90;;;;;;5029577;28;20041;-79
2022/06/26 03:29:12;;;;;;;11.82;5.72;;;18.10;99.90;;;;;;5027571;28;20037;-78
2022/06/26 03:31:39;;;;;;;7.32;5.22;;;18.10;99.90;;;;;;5022819;28;20045;-79
2022/06/26 03:34:05;;;;;;;7.97;5.20;;;18.00;99.90;;;;;;5029319;28;20120;-78
2022/06/26 03:36:31;;;;;;;5.95;5.10;;;18.00;99.90;;;;;;5029596;28;20053;-78
2022/06/26 03:38:57;;;;;;;8.40;4.63;;;18.00;99.90;;;;;;5029104;28;20124;-78
2022/06/26 03:41:23;;;;;;;7.40;5.18;;;17.90;99.90;;;;;;5029844;28;20397;-78
2022/06/26 03:43:49;;;;;;;5.78;4.45;;;17.90;99.90;;;;;;5029596;28;20049;-78
2022/06/26 03:46:15;;;;;;;7.28;5.00;;;17.90;99.90;;;;;;5029297;28;20121;-78
2022/06/26 03:48:41;;;;;;;5.78;3.92;;;17.90;99.90;;;;;;5026254;28;20541;-78
2022/06/26 03:51:07;;;;;;;7.00;4.53;;;17.90;99.90;;;;;;5029172;28;20038;-78
2022/06/26 03:53:34;;;;;;;5.72;4.38;;;17.80;99.90;;;;;;5015153;28;20038;-78
2022/06/26 03:56:00;;;;;;;5.28;4.00;;;17.80;99.90;;;;;;5033688;28;20038;-77
2022/06/26 03:58:25;;;;;;;6.65;4.07;;;17.80;99.90;;;;;;5033466;28;20037;-77
2022/06/26 04:00:52;;;;;;;6.53;3.63;;;17.70;99.90;;;;;;5033037;28;20040;-78
2022/06/26 04:03:18;;;;;;;4.78;3.80;;;17.70;99.90;;;;;;5033891;28;20033;-77
2022/06/26 04:05:44;;;;;;;6.05;4.15;;;17.70;99.90;;;;;;5033867;28;20041;-78
2022/06/26 04:08:10;;;;;;;5.60;4.07;;;17.70;99.90;;;;;;5032765;28;20481;-78
2022/06/26 04:10:36;;;;;;;6.80;4.13;;;17.70;99.90;;;;;;5016889;28;20103;-79
2022/06/26 04:13:05;;;;;;;5.35;4.22;;;17.50;99.90;;;;;;5016476;28;20477;-78
2022/06/26 04:15:32;;;;;;;5.07;4.32;;;17.60;99.90;;;;;;5032778;28;20053;-78
2022/06/26 04:17:58;;;;;;;7.03;4.80;;;17.60;99.90;;;;;;5032976;28;20396;-77
2022/06/26 04:20:24;;;;;;;7.63;4.65;;;17.50;99.90;;;;;;5024862;28;20041;-77
2022/06/26 04:23:06;;;;;;;7.13;4.65;;;17.50;99.90;;;;;;5032662;28;20048;-78
2022/06/26 04:25:33;;;;;;;6.53;5.07;;;17.50;99.90;;;;;;5010000;28;20064;-78
2022/06/26 04:27:59;;;;;;;6.63;5.25;;;17.50;99.90;;;;;;5032535;28;20064;-78
2022/06/26 04:30:26;;;;;;;8.55;5.72;;;17.50;99.90;;;;;;5027394;28;20056;-78
2022/06/26 04:32:51;;;;;;;7.78;6.00;;;17.50;99.90;;;;;;5032593;28;20117;-79
2022/06/26 04:35:18;;;;;;;7.82;5.97;;;17.60;99.90;;;;;;5032353;28;20565;-78
2022/06/26 04:37:44;;;;;;;7.68;6.47;;;17.50;99.90;;;;;;5032552;28;20501;-78
2022/06/26 04:40:11;;;;;;;7.55;5.82;;;17.60;99.90;;;;;;5031832;28;20120;-79
2022/06/26 04:42:38;;;;;;;9.02;6.70;;;17.60;99.90;;;;;;5028150;28;20100;-77
2022/06/26 04:45:05;;;;;;;11.13;6.72;;;17.70;99.90;;;;;;5013616;28;20037;-77
2022/06/26 04:47:31;;;;;;;8.68;6.40;;;17.70;99.90;;;;;;5029487;28;20057;-77
2022/06/26 04:49:57;;;;;;;8.63;6.50;;;17.70;99.90;;;;;;5032818;28;20497;-77
2022/06/26 04:52:23;;;;;;;7.78;6.10;;;17.80;99.90;;;;;;5031010;28;20071;-77
2022/06/26 04:54:48;;;;;;;11.15;6.03;;;17.70;99.90;;;;;;5028282;28;20480;-77
2022/06/26 04:57:14;;;;;;;7.70;5.45;;;17.80;99.90;;;;;;5031074;28;20045;-77
2022/06/26 04:59:39;;;;;;;7.72;5.93;;;17.80;99.90;;;;;;5032243;28;20077;-77
2022/06/26 05:02:07;;;;;;;7.13;6.05;;;17.80;99.90;;;;;;5032194;28;20409;-77
2022/06/26 05:04:33;;;;;;;6.70;5.55;;;17.80;99.90;;;;;;5031839;28;20564;-77
2022/06/26 05:06:58;;;;;;;8.00;5.68;;;17.90;99.90;;;;;;5032013;28;20053;-77
2022/06/26 05:09:25;;;;;;;8.18;6.88;;;17.90;99.90;;;;;;5032002;28;20046;-77
2022/06/26 05:11:51;;;;;;;7.13;6.00;;;18.00;99.90;;;;;;5032407;28;20042;-77
2022/06/26 05:14:18;;;;;;;8.50;5.82;;;17.90;99.90;;;;;;5030941;28;20547;-77
2022/06/26 05:16:44;;;;;;;8.10;6.10;;;18.00;99.90;;;;;;5032050;28;20053;-77
2022/06/26 05:19:10;;;;;;;8.38;6.57;;;17.90;99.90;;;;;;5031683;28;20038;-77
2022/06/26 05:21:36;;;;;;;8.00;6.38;;;18.00;99.90;;;;;;5032244;28;20056;-76
2022/06/26 05:24:02;;;;;;;8.40;6.93;;;18.00;99.90;;;;;;5032166;28;20045;-76
2022/06/26 05:26:27;;;;;;;9.20;6.47;;;18.00;99.90;;;;;;5031582;28;20041;-76
2022/06/26 05:28:53;;;;;;;8.05;6.35;;;18.00;99.90;;;;;;5031387;28;20029;-76
2022/06/26 05:31:19;;;;;;;10.32;6.55;;;18.00;99.90;;;;;;5030183;28;20448;-76
2022/06/26 05:33:45;;;;;;;8.18;6.97;;;17.90;99.90;;;;;;5026440;28;20509;-77
2022/06/26 05:36:11;;;;;;;9.48;7.65;;;18.00;99.90;;;;;;5031946;28;20120;-76
2022/06/26 05:38:37;;;;;;;8.63;7.72;;;18.10;99.90;;;;;;5031435;28;20041;-76
2022/06/26 05:41:03;;;;;;;9.65;8.00;;;18.10;99.90;;;;;;5031772;28;20042;-76
2022/06/26 05:43:29;;;;;;;9.98;8.30;;;18.00;99.90;;;;;;5023835;28;20044;-76
2022/06/26 05:45:55;;;;;;;9.63;8.43;;;18.00;99.90;;;;;;5031482;28;20037;-76
2022/06/26 05:48:20;;;;;;;9.80;8.02;;;18.00;99.90;;;;;;5030064;28;20516;-76
2022/06/26 05:50:46;;;;;;;11.98;9.35;;;18.10;99.90;;;;;;5031208;28;20045;-76
2022/06/26 05:53:12;;;;;;;11.73;9.80;;;18.00;99.90;;;;;;5031484;28;20033;-76
2022/06/26 05:55:38;;;;;;;13.05;9.63;;;17.90;99.90;;;;;;5015065;28;20137;-76
2022/06/26 05:58:08;;;;;;;11.55;9.52;;;17.90;99.90;;;;;;5028021;28;20041;-76
2022/06/26 06:00:34;;;;;;;12.85;10.70;;;17.90;99.90;;;;;;5031748;28;20139;-76
2022/06/26 06:02:59;;;;;;;13.38;11.18;;;17.90;99.90;;;;;;5030911;28;20034;-76
2022/06/26 06:05:28;;;;;;;14.63;11.25;;;17.90;99.90;;;;;;5030707;28;20048;-76
2022/06/26 06:07:55;;;;;;;13.30;11.88;;;17.90;99.90;;;;;;5030730;28;20069;-76
2022/06/26 06:10:21;;;;;;;15.55;12.70;;;18.00;99.90;;;;;;5031129;28;20091;-76
2022/06/26 06:12:48;;;;;;;20.23;13.38;;;18.00;99.90;;;;;;5013730;28;20041;-76
2022/06/26 06:15:13;;;;;;;16.08;13.20;;;18.00;99.90;;;;;;5030499;28;20048;-76
2022/06/26 06:17:42;;;;;;;16.48;14.15;;;17.90;99.90;;;;;;5031256;28;20049;-76
2022/06/26 06:20:17;;;;;;;17.02;14.68;;;18.00;99.90;;;;;;5030822;28;20485;-76
2022/06/26 06:22:47;;;;;;;16.65;13.57;;;18.00;99.90;;;;;;5029724;28;20466;-76
2022/06/26 06:25:13;;;;;;;16.15;14.30;;;18.00;99.90;;;;;;5002814;28;20088;-76
2022/06/26 06:27:39;;;;;;;16.92;13.60;;;18.00;99.90;;;;;;5018628;28;20429;-77
2022/06/26 06:30:07;;;;;;;16.58;14.13;;;18.00;99.90;;;;;;5016997;28;20065;-76
2022/06/26 06:32:33;;;;;;;17.92;14.90;;;18.10;99.90;;;;;;5018521;28;20441;-76
2022/06/26 06:34:59;;;;;;;19.17;15.00;;;18.10;99.90;;;;;;5026937;28;20088;-76
2022/06/26 06:37:25;;;;;;;18.75;15.73;;;18.00;99.90;;;;;;5030148;28;20049;-76
2022/06/26 06:39:51;;;;;;;19.52;14.85;;;18.00;99.90;;;;;;5029935;28;20049;-75
2022/06/26 06:42:17;;;;;;;18.88;15.27;;;18.00;99.90;;;;;;5027150;28;20049;-76
2022/06/26 06:44:43;;;;;;;21.50;16.02;;;18.00;99.90;;;;;;5026795;28;20289;-76
2022/06/26 06:47:08;;;;;;;20.55;16.67;;;18.00;99.90;;;;;;5026191;28;20038;-76
2022/06/26 06:49:34;;;;;;;20.13;17.00;;;18.00;99.90;;;;;;5033351;28;20052;-76
2022/06/26 06:52:00;;;;;;;20.83;17.17;;;18.10;99.90;;;;;;5030080;28;20064;-76
2022/06/26 06:54:26;;;;;;;21.65;17.10;;;18.10;99.90;;;;;;5028510;28;20086;-76
2022/06/26 06:56:52;;;;;;;21.58;16.92;;;18.10;99.90;;;;;;5044087;28;20041;-76
2022/06/26 06:59:18;;;;;;;19.77;16.30;;;18.10;99.90;;;;;;5088536;22;20129;-75
2022/06/26 07:01:44;;;;;;;19.42;17.15;;;18.10;99.90;;;;;;5064576;28;20067;-77
2022/06/26 07:04:10;;;;;;;19.88;16.90;;;18.00;99.90;;;;;;5061565;28;20378;-77
2022/06/26 07:06:35;;;;;;;20.02;16.20;;;17.90;99.90;;;;;;5084999;28;20040;-77
2022/06/26 07:09:01;;;;;;;20.83;16.75;;;18.00;99.90;;;;;;5078519;28;20048;-77
2022/06/26 07:11:27;;;;;;;21.20;16.75;;;18.00;99.90;;;;;;5072197;28;20032;-76
2022/06/26 07:13:52;;;;;;;24.05;17.92;;;18.00;99.90;;;;;;5064545;28;20041;-77
2022/06/26 07:16:18;;;;;;;22.45;17.83;;;18.00;99.90;;;;;;5050173;28;20060;-77
2022/06/26 07:18:43;;;;;;;21.63;17.05;;;18.10;99.90;;;;;;5048078;28;20491;-77
2022/06/26 07:21:09;;;;;;;21.33;17.15;;;18.00;99.90;;;;;;5046413;28;20040;-77
2022/06/26 07:23:35;;;;;;;22.15;16.25;;;18.00;99.90;;;;;;5073335;28;20438;-76
2022/06/26 07:26:02;;;;;;;23.48;17.08;;;18.00;99.90;;;;;;5070977;28;20043;-77
2022/06/26 07:28:27;;;;;;;22.05;17.15;;;18.10;99.90;;;;;;5071520;28;20040;-77
2022/06/26 07:30:53;;;;;;;23.27;17.63;;;18.10;99.90;;;;;;5066722;28;20095;-77
2022/06/26 07:36:03;;;;;;;19.13;16.45;;;18.20;99.90;;;;;;5070883;28;20044;-77
2022/06/26 07:38:29;;;;;;;21.15;16.98;;;18.30;99.90;;;;;;5075412;28;20048;-78
2022/06/26 07:40:55;;;;;;;20.02;16.20;;;18.30;99.90;;;;;;5055437;28;20055;-77
2022/06/26 07:43:21;;;;;;;19.23;15.40;;;18.30;99.90;;;;;;5073276;28;20040;-77
2022/06/26 07:45:49;;;;;;;18.10;15.18;;;18.40;99.90;;;;;;5072856;28;20484;-77
2022/06/26 07:48:14;;;;;;;15.98;13.82;;;18.50;99.90;;;;;;5070319;28;20044;-77
2022/06/26 07:50:40;;;;;;;16.58;14.60;;;18.40;99.90;;;;;;5071481;28;20048;-77
2022/06/26 07:53:06;;;;;;;15.10;12.82;;;18.50;99.90;;;;;;5042521;28;20094;-77
2022/06/26 07:55:32;;;;;;;16.55;12.10;;;18.50;99.90;;;;;;5058064;28;20040;-78
2022/06/26 07:57:57;;;;;;;16.25;11.27;;;18.60;99.90;;;;;;5060894;28;20045;-77
2022/06/26 08:00:24;;;;;;;15.00;12.32;;;18.70;99.90;;;;;;5043749;28;20036;-77
2022/06/26 08:02:49;;;;;;;14.77;12.00;;;18.80;99.90;;;;;;5058667;28;20055;-77
2022/06/26 08:05:15;;;;;;;13.30;11.88;;;18.80;99.90;;;;;;5058175;28;20036;-75
2022/06/26 08:07:41;;;;;;;15.20;11.70;;;18.90;99.90;;;;;;5038353;28;20037;-74
2022/06/26 08:10:07;;;;;;;13.45;10.00;;;19.00;99.90;;;;;;5056590;28;20029;-75
2022/06/26 08:12:33;;;;;;;12.85;9.20;;;19.00;99.90;;;;;;5054466;28;20128;-75
2022/06/26 08:14:58;;;;;;;12.05;8.90;;;19.00;99.90;;;;;;5057842;28;20112;-74
2022/06/26 08:17:24;;;;;;;12.50;9.00;;;19.00;99.90;;;;;;5062635;28;20056;-74
2022/06/26 08:19:50;;;;;;;13.70;9.23;;;19.00;99.90;;;;;;5054880;28;20045;-75
2022/06/26 08:22:15;;;;;;;11.38;8.70;;;19.10;99.90;;;;;;5061468;28;20051;-74
2022/06/26 08:24:44;;;;;;;9.90;7.97;;;19.20;99.90;;;;;;5072913;28;20076;-75
2022/06/26 08:27:10;;;;;;;13.88;8.60;;;19.30;99.90;;;;;;5063531;28;20534;-75
2022/06/26 08:29:37;;;;;;;10.70;8.10;;;19.50;99.90;;;;;;5048464;28;20458;-75
2022/06/26 08:32:04;;;;;;;12.30;8.77;;;19.60;99.90;;;;;;5069113;28;20040;-75
2022/06/26 08:34:29;;;;;;;11.73;8.55;;;19.60;99.90;;;;;;5067573;28;20036;-74
2022/06/26 08:36:58;;;;;;;11.43;8.90;;;19.60;99.90;;;;;;5070569;28;20561;-75
2022/06/26 08:39:24;;;;;;;11.30;7.10;;;19.50;99.90;;;;;;5067667;28;20036;-74
2022/06/26 08:41:53;;;;;;;8.77;6.20;;;19.50;99.90;;;;;;5057812;28;20514;-74
2022/06/26 08:44:19;;;;;;;9.32;6.18;;;19.40;99.90;;;;;;5056540;28;20051;-74
2022/06/26 08:46:46;;;;;;;7.80;5.50;;;19.50;99.90;;;;;;5051382;28;20504;-74
2022/06/26 08:49:19;;;;;;;12.18;6.07;;;19.80;99.90;;;;;;5066197;28;20045;-74
2022/06/26 08:51:47;;;;;;;9.48;6.15;;;20.00;99.90;;;;;;5055050;28;20037;-75
2022/06/26 08:54:15;;;;;;;9.80;6.90;;;20.30;99.90;;;;;;5071917;28;20056;-73
2022/06/26 08:56:46;;;;;;;8.23;6.03;;;20.50;99.90;;;;;;5071546;28;20040;-74
2022/06/26 08:59:14;;;;;;;7.68;6.03;;;20.80;99.90;;;;;;5048072;28;20048;-74
2022/06/26 09:01:41;;;;;;;7.72;5.90;;;21.00;99.90;;;;;;5069506;28;20523;-74
2022/06/26 09:04:07;;;;;;;7.60;4.90;;;21.20;99.90;;;;;;5065504;28;20037;-74
2022/06/26 09:06:37;;;;;;;7.03;4.40;;;21.40;99.90;;;;;;5062862;28;20128;-75
2022/06/26 09:09:27;;;;;;;6.28;4.32;;;21.50;99.90;;;;;;5070958;28;20028;-74
2022/06/26 09:11:55;;;;;;;10.27;5.45;;;21.70;99.90;;;;;;5037262;28;20048;-75
2022/06/26 09:14:22;;;;;;;7.65;4.80;;;21.50;99.90;;;;;;5067598;28;20047;-74
2022/06/26 09:16:49;;;;;;;6.50;4.78;;;21.70;99.90;;;;;;5071244;28;20097;-75
2022/06/26 09:19:20;;;;;;;9.05;5.25;;;21.60;99.90;;;;;;5061778;28;20044;-75
2022/06/26 09:21:50;;;;;;;8.67;4.90;;;21.60;99.90;;;;;;5067084;28;20048;-76
2022/06/26 09:24:18;;;;;;;6.45;4.72;;;21.60;99.90;;;;;;5040189;28;20056;-75
2022/06/26 09:26:44;;;;;;;7.47;4.20;;;21.60;99.90;;;;;;5057055;28;20037;-77
2022/06/26 09:29:15;;;;;;;5.72;3.85;;;21.60;99.90;;;;;;5064742;28;20036;-75
2022/06/26 09:31:41;;;;;;;6.35;3.50;;;21.60;99.90;;;;;;5062754;28;20043;-75
2022/06/26 09:34:19;;;;;;;7.03;3.88;;;21.70;99.90;;;;;;5071987;28;20040;-75
2022/06/26 09:36:58;;;;;;;5.40;3.47;;;21.70;99.90;;;;;;5069354;28;20052;-75
2022/06/26 09:39:25;;;;;;;5.75;3.38;;;21.60;99.90;;;;;;5057288;28;20506;-75
2022/06/26 09:41:51;;;;;;;6.13;3.30;;;21.60;99.90;;;;;;5070628;28;20128;-75
2022/06/26 09:44:21;;;;;;;4.68;3.40;;;21.60;99.90;;;;;;5055183;28;20068;-75
2022/06/26 09:46:47;;;;;;;6.07;3.40;;;21.60;99.90;;;;;;5071072;28;20086;-75
2022/06/26 09:49:13;;;;;;;5.22;3.35;;;21.70;99.90;;;;;;5054410;28;20472;-75
2022/06/26 09:51:40;;;;;;;7.03;4.43;;;21.70;99.90;;;;;;5070528;28;20106;-75
2022/06/26 09:54:08;;;;;;;7.15;4.43;;;21.70;99.90;;;;;;5070858;28;20217;-75
2022/06/26 09:56:34;;;;;;;7.95;3.92;;;21.70;99.90;;;;;;5051368;28;20047;-76
2022/06/26 09:59:00;;;;;;;5.95;4.07;;;21.80;99.90;;;;;;5056599;28;20037;-75
2022/06/26 10:07:05;;;;;;;5.68;3.78;;;21.90;99.90;;;;;;5065807;28;20106;-75
2022/06/26 10:09:34;;;;;;;7.60;4.28;;;22.00;99.90;;;;;;5071872;28;20667;-75
2022/06/26 10:12:02;;;;;;;7.25;4.28;;;21.90;99.90;;;;;;5061982;28;20512;-75
2022/06/26 10:14:41;;;;;;;7.60;3.78;;;21.90;99.90;;;;;;5062159;28;20119;-75
2022/06/26 10:17:33;;;;;;;9.70;4.70;;;21.80;99.90;;;;;;5066683;28;20405;-75
2022/06/26 10:20:04;;;;;;;5.45;3.88;;;21.70;99.90;;;;;;5066253;28;20040;-75
2022/06/26 10:22:41;;;;;;;7.97;4.43;;;21.60;99.90;;;;;;5061095;28;20174;-75
2022/06/26 10:25:08;;;;;;;6.97;4.07;;;21.60;99.90;;;;;;5070096;28;20051;-75
2022/06/26 10:27:36;;;;;;;6.22;3.78;;;21.50;99.90;;;;;;5067172;28;20040;-75
2022/06/26 10:30:15;;;;;;;6.13;3.80;;;21.50;99.90;;;;;;5078226;28;20036;-75
2022/06/26 10:32:42;;;;;;;6.43;3.83;;;21.50;99.90;;;;;;5056492;28;20033;-75
2022/06/26 10:35:09;;;;;;;5.43;3.67;;;21.50;99.90;;;;;;5047221;28;20040;-75
2022/06/26 10:37:46;;;;;;;7.10;3.30;;;21.50;99.90;;;;;;5060106;28;20563;-75
2022/06/26 10:43:08;;;;;;;5.50;3.90;;;21.50;99.90;;;;;;5066323;28;20079;-75
2022/06/26 10:45:39;;;;;;;8.02;4.05;;;21.40;99.90;;;;;;5066527;28;20047;-75
2022/06/26 10:48:16;;;;;;;6.93;4.20;;;21.40;99.90;;;;;;5065057;28;20075;-75
2022/06/26 10:50:42;;;;;;;6.53;4.15;;;21.50;99.90;;;;;;5069696;28;20052;-75
2022/06/26 10:53:19;;;;;;;7.72;3.78;;;21.50;99.90;;;;;;5063253;28;20129;-76
2022/06/26 10:55:53;;;;;;;7.63;3.70;;;21.60;99.90;;;;;;5068647;28;20051;-76
2022/06/26 10:58:20;;;;;;;5.95;3.58;;;21.80;99.90;;;;;;5068071;28;20059;-75
2022/06/26 11:00:46;;;;;;;7.65;3.90;;;21.90;99.90;;;;;;5068537;28;20049;-74
2022/06/26 11:03:14;;;;;;;6.40;3.83;;;22.00;99.90;;;;;;5067331;28;20068;-76
2022/06/26 11:05:56;;;;;;;10.07;3.90;;;22.00;99.90;;;;;;5065059;28;20037;-75
2022/06/26 11:08:30;;;;;;;8.27;3.45;;;22.10;99.90;;;;;;5068347;28;20054;-76
2022/06/26 11:11:30;;;;;;;5.78;3.08;;;22.00;99.90;;;;;;5070255;28;20048;-75
2022/06/26 11:13:59;;;;;;;6.72;3.03;;;21.90;99.90;;;;;;5042810;28;20076;-76
2022/06/26 11:16:34;;;;;;;7.57;3.00;;;21.80;99.90;;;;;;5051035;28;20377;-76
2022/06/26 11:19:03;;;;;;;4.93;2.80;;;21.70;99.90;;;;;;5064009;28;20070;-75
2022/06/26 11:21:29;;;;;;;6.70;3.00;;;21.60;99.90;;;;;;5066040;28;20076;-75
2022/06/26 11:23:55;;;;;;;6.50;3.10;;;21.60;99.90;;;;;;5070338;28;20353;-75
2022/06/26 11:26:22;;;;;;;9.98;3.60;;;21.60;99.90;;;;;;5052695;28;20038;-75
2022/06/26 11:28:56;;;;;;;11.82;4.38;;;21.60;99.90;;;;;;5061652;28;20087;-75
2022/06/26 11:31:26;;;;;;;9.77;3.25;;;21.70;99.90;;;;;;5065109;28;20038;-75
2022/06/26 11:33:52;;;;;;;5.32;3.33;;;21.80;99.90;;;;;;5066812;28;20052;-75
2022/06/26 11:36:19;;;;;;;6.25;2.65;;;21.80;99.90;;;;;;5065797;28;21258;-75
2022/06/26 11:38:51;;;;;;;8.10;3.10;;;21.80;99.90;;;;;;5065898;28;20047;-75
2022/06/26 11:41:18;;;;;;;5.35;3.00;;;21.90;99.90;;;;;;5070769;28;20115;-75
2022/06/26 11:43:46;;;;;;;6.95;3.38;;;21.90;99.90;;;;;;5059193;28;20036;-74
2022/06/26 11:46:11;;;;;;;5.28;3.17;;;21.80;99.90;;;;;;5063477;28;20044;-75
2022/06/26 11:48:37;;;;;;;5.47;3.30;;;21.90;99.90;;;;;;5065444;28;20054;-74
2022/06/26 11:51:03;;;;;;;7.30;3.30;;;21.90;99.90;;;;;;5040019;28;20036;-74
2022/06/26 11:53:31;;;;;;;5.80;3.67;;;21.80;99.90;;;;;;5047527;28;20052;-73
2022/06/26 11:55:59;;;;;;;6.38;3.70;;;21.90;99.90;;;;;;5054134;28;20064;-74
2022/06/26 11:58:31;;;;;;;7.35;3.13;;;21.90;99.90;;;;;;5054991;28;20033;-73
2022/06/26 12:01:13;;;;;;;6.47;3.85;;;21.90;99.90;;;;;;5060375;28;20037;-73
2022/06/26 12:03:47;;;;;;;6.38;3.20;;;22.00;99.90;;;;;;5050155;28;20120;-74
2022/06/26 12:06:31;;;;;;;5.50;3.17;;;22.00;99.90;;;;;;5049323;28;20119;-73
2022/06/26 12:08:58;;;;;;;6.30;3.67;;;22.00;99.90;;;;;;5053375;28;20049;-73
2022/06/26 12:11:25;;;;;;;6.35;3.90;;;22.10;99.90;;;;;;5071628;28;20093;-74
2022/06/26 12:13:51;;;;;;;6.55;3.70;;;22.10;99.90;;;;;;5067551;28;20032;-75
2022/06/26 12:16:20;;;;;;;6.88;3.65;;;22.00;99.90;;;;;;5071715;28;20037;-75
2022/06/26 12:18:49;;;;;;;7.95;3.63;;;21.90;99.90;;;;;;5054019;28;20037;-75
2022/06/26 12:21:20;;;;;;;4.43;3.13;;;21.90;99.90;;;;;;5069927;28;20046;-75
2022/06/26 12:23:47;;;;;;;6.63;3.33;;;21.90;99.90;;;;;;5054000;28;20036;-75
2022/06/26 12:26:17;;;;;;;4.95;2.50;;;21.90;99.90;;;;;;5073726;28;20492;-75
2022/06/26 12:29:00;;;;;;;4.07;2.75;;;22.00;99.90;;;;;;5069796;28;20111;-75
2022/06/26 12:31:26;;;;;;;4.60;2.67;;;22.00;99.90;;;;;;5067839;28;20032;-75
2022/06/26 12:33:52;;;;;;;5.90;3.30;;;21.90;99.90;;;;;;5082668;28;20378;-75
2022/06/26 12:36:19;;;;;;;7.30;3.35;;;21.80;99.90;;;;;;5066857;28;20073;-76
2022/06/26 12:38:46;;;;;;;5.30;2.75;;;21.80;99.90;;;;;;5071751;28;20078;-76
2022/06/26 12:41:16;;;;;;;5.05;3.25;;;21.80;99.90;;;;;;5071717;28;20048;-76
2022/06/26 12:43:52;;;;;;;7.50;3.60;;;21.80;99.90;;;;;;5068747;28;20072;-76
2022/06/26 12:46:18;;;;;;;6.15;3.25;;;21.70;99.90;;;;;;5069569;28;20136;-76
2022/06/26 12:48:45;;;;;;;6.63;3.42;;;21.70;99.90;;;;;;5068952;28;20277;-76
2022/06/26 12:51:11;;;;;;;5.82;4.53;;;21.60;99.90;;;;;;5072186;28;20043;-76
2022/06/26 12:53:37;;;;;;;11.73;8.15;;;21.60;99.90;;;;;;5069630;28;20036;-76